createdAt,value
2022-11-16T00:02:12.849Z,100038.16
2022-11-16T00:04:41.077Z,100030.16
2022-11-16T00:07:08.937Z,100033.69
2022-11-16T00:09:36.659Z,100027.41
2022-11-16T00:12:07.279Z,100031.88
2022-11-16T00:14:37.003Z,100031.88
2022-11-16T00:17:05.051Z,100022.97
2022-11-16T00:19:32.897Z,100030.88
2022-11-16T00:22:00.586Z,100027.41
2022-11-16T00:24:28.262Z,100020.22
2022-11-16T00:26:56.375Z,100028.09
2022-11-16T00:29:26.457Z,100022.97
2022-11-16T00:31:55.387Z,100026.50
2022-11-16T00:34:24.486Z,100023.81
2022-11-16T00:36:52.716Z,100024.56
2022-11-16T00:39:20.920Z,100024.56
2022-11-16T00:41:49.469Z,100022.78
2022-11-16T00:44:18.686Z,100020.13
2022-11-16T00:46:46.629Z,100027.09
2022-11-16T00:49:14.521Z,100011.09
2022-11-16T00:51:42.210Z,100017.38
2022-11-16T00:54:10.621Z,100014.72
2022-11-16T00:56:39.780Z,100016.44
2022-11-16T00:59:08.231Z,100010.25
2022-11-16T01:01:36.127Z,100011.91
2022-11-16T01:04:03.936Z,99998.50
2022-11-16T01:06:31.593Z,100007.44
2022-11-16T01:09:01.716Z,100006.56
2022-11-16T01:11:47.860Z,100007.50
2022-11-16T01:14:15.996Z,100010.03
2022-11-16T01:16:44.503Z,99999.53
2022-11-16T01:19:12.160Z,99983.47
2022-11-16T01:21:39.894Z,99995.91
2022-11-16T01:24:07.617Z,100000.38
2022-11-16T01:26:35.269Z,100002.19
2022-11-16T01:29:03.398Z,99993.25
2022-11-16T01:31:35.394Z,99995.06
2022-11-16T01:34:04.235Z,99987.84
2022-11-16T01:36:32.312Z,99992.38
2022-11-16T01:39:02.815Z,99991.38
2022-11-16T01:41:36.503Z,99980.53
2022-11-16T01:44:33.236Z,99983.31
2022-11-16T01:47:17.250Z,99986.13
2022-11-16T01:49:55.319Z,99981.66
2022-11-16T01:52:34.277Z,99980.66
2022-11-16T01:55:03.123Z,99996.78
2022-11-16T01:57:44.347Z,99987.69
2022-11-16T02:00:14.481Z,99983.38
2022-11-16T02:02:45.649Z,99978.06
2022-11-16T02:05:40.171Z,99978.13
2022-11-16T02:08:50.606Z,99972.81
2022-11-16T02:11:42.095Z,99966.38
2022-11-16T02:14:52.779Z,99959.22
2022-11-16T02:18:11.018Z,99965.59
2022-11-16T02:21:08.593Z,99964.66
2022-11-16T02:24:22.819Z,99956.66
2022-11-16T02:27:06.779Z,99953.06
2022-11-16T02:29:50.118Z,99955.53
2022-11-16T02:32:41.175Z,99955.63
2022-11-16T02:35:35.499Z,99957.34
2022-11-16T02:38:20.973Z,99955.72
2022-11-16T02:41:03.248Z,99953.75
2022-11-16T02:43:38.380Z,99950.41
2022-11-16T02:46:16.636Z,99952.00
2022-11-16T02:48:51.414Z,99958.13
2022-11-16T02:51:21.638Z,99948.56
2022-11-16T02:54:16.083Z,99946.00
2022-11-16T02:57:04.653Z,99953.75
2022-11-16T02:59:40.827Z,99951.06
2022-11-16T03:02:22.534Z,99952.88
2022-11-16T03:05:03.061Z,99958.28
2022-11-16T03:07:46.610Z,99956.31
2022-11-16T03:10:36.562Z,99954.53
2022-11-16T03:13:09.437Z,99951.84
2022-11-16T03:15:40.178Z,99964.31
2022-11-16T03:18:12.827Z,99958.38
2022-11-16T03:20:43.314Z,99959.00
2022-11-16T03:23:13.194Z,99959.31
2022-11-16T03:25:52.952Z,99965.25
2022-11-16T03:28:33.319Z,99962.66
2022-11-16T03:31:11.379Z,99964.47
2022-11-16T03:33:50.081Z,99960.00
2022-11-16T03:36:26.719Z,99967.31
2022-11-16T03:38:56.622Z,99966.53
2022-11-16T03:41:27.503Z,99963.09
2022-11-16T03:43:56.684Z,99967.47
2022-11-16T03:46:24.920Z,99965.91
2022-11-16T03:48:58.606Z,99975.69
2022-11-16T03:51:31.093Z,99972.16
2022-11-16T03:53:59.072Z,99980.25
2022-11-16T03:56:26.812Z,99977.75
2022-11-16T03:58:54.474Z,99974.28
2022-11-16T04:01:22.345Z,99973.28
2022-11-16T04:03:50.838Z,99984.88
2022-11-16T04:06:38.685Z,99987.75
2022-11-16T04:09:25.379Z,99994.13
2022-11-16T04:12:11.620Z,99988.00
2022-11-16T04:14:58.658Z,99989.81
2022-11-16T04:17:48.218Z,99992.56
2022-11-16T04:20:35.032Z,99991.16
2022-11-16T04:23:31.959Z,99991.97
2022-11-16T04:26:00.521Z,99984.09
2022-11-16T04:28:32.593Z,99987.63
2022-11-16T04:31:31.155Z,99990.50
2022-11-16T04:34:22.931Z,99988.78
2022-11-16T04:37:12.407Z,99995.91
2022-11-16T04:39:41.464Z,100000.69
2022-11-16T04:42:19.816Z,100005.16
2022-11-16T04:45:09.043Z,100000.81
2022-11-16T04:47:43.855Z,99998.31
2022-11-16T04:50:12.163Z,100002.88
2022-11-16T04:52:41.270Z,100003.94
2022-11-16T04:55:12.438Z,100006.75
2022-11-16T04:57:40.275Z,100008.63
2022-11-16T05:00:09.514Z,100010.34
2022-11-16T05:02:39.609Z,100014.13
2022-11-16T05:05:08.335Z,100011.34
2022-11-16T05:07:37.930Z,100008.94
2022-11-16T05:10:15.405Z,100011.59
2022-11-16T05:12:44.003Z,100012.53
2022-11-16T05:15:11.938Z,100009.22
2022-11-16T05:17:40.389Z,100019.09
2022-11-16T05:20:32.008Z,100021.84
2022-11-16T05:23:04.313Z,100026.75
2022-11-16T05:25:37.125Z,100025.81
2022-11-16T05:28:07.971Z,100028.38
2022-11-16T05:30:39.828Z,100025.81
2022-11-16T05:33:07.528Z,100020.69
2022-11-16T05:35:39.305Z,100032.19
2022-11-16T05:38:07.541Z,100030.78
2022-11-16T05:40:40.083Z,100030.78
2022-11-16T05:43:07.879Z,100029.97
2022-11-16T05:45:41.091Z,100029.31
2022-11-16T05:48:09.495Z,100039.88
2022-11-16T05:50:42.317Z,100041.00
2022-11-16T05:53:17.175Z,100050.91
2022-11-16T05:55:44.927Z,100054.47
2022-11-16T05:58:12.763Z,100051.16
2022-11-16T06:00:40.488Z,100045.84
2022-11-16T06:03:10.462Z,100058.44
2022-11-16T06:05:40.692Z,100056.56
2022-11-16T06:08:10.381Z,100048.72
2022-11-16T06:10:38.037Z,100049.72
2022-11-16T06:13:06.514Z,100045.41
2022-11-16T06:15:38.406Z,100048.00
2022-11-16T06:18:08.035Z,100049.94
2022-11-16T06:20:39.560Z,100042.03
2022-11-16T06:23:08.183Z,100045.69
2022-11-16T06:25:39.660Z,100048.34
2022-11-16T06:28:08.244Z,100043.03
2022-11-16T06:30:38.410Z,100046.63
2022-11-16T06:33:08.468Z,100047.63
2022-11-16T06:35:37.496Z,100050.34
2022-11-16T06:38:05.752Z,100054.00
2022-11-16T06:40:33.917Z,100049.75
2022-11-16T06:43:03.251Z,100053.41
2022-11-16T06:45:31.220Z,100050.97
2022-11-16T06:48:01.614Z,100064.31
2022-11-16T06:50:29.323Z,100061.72
2022-11-16T06:53:00.606Z,100069.75
2022-11-16T06:55:29.543Z,100064.63
2022-11-16T06:57:57.238Z,100073.81
2022-11-16T07:00:24.956Z,100076.41
2022-11-16T07:02:52.738Z,100073.88
2022-11-16T07:05:20.449Z,100076.75
2022-11-16T07:07:48.459Z,100078.78
2022-11-16T07:10:16.460Z,100083.25
2022-11-16T07:12:44.527Z,100081.78
2022-11-16T07:15:13.842Z,100085.38
2022-11-16T07:17:44.012Z,100089.22
2022-11-16T07:20:14.795Z,100096.31
2022-11-16T07:22:42.527Z,100099.09
2022-11-16T07:25:13.734Z,100095.78
2022-11-16T07:27:41.651Z,100104.75
2022-11-16T07:30:09.996Z,100105.78
2022-11-16T07:33:00.792Z,100112.94
2022-11-16T07:35:47.241Z,100109.63
2022-11-16T07:38:17.988Z,100115.81
2022-11-16T07:40:46.453Z,100116.84
2022-11-16T07:43:17.352Z,100117.81
2022-11-16T07:48:58.976Z,100126.00
2022-11-16T07:51:46.809Z,100139.38
2022-11-16T07:54:31.375Z,100135.81
2022-11-16T07:56:59.139Z,100140.41
2022-11-16T07:59:27.447Z,100147.53
2022-11-16T08:01:59.253Z,100147.53
2022-11-16T08:04:27.725Z,100153.69
2022-11-16T08:06:55.481Z,100160.78
2022-11-16T08:09:24.073Z,100161.75
2022-11-16T08:11:52.363Z,100162.78
2022-11-16T08:14:20.362Z,100165.31
2022-11-16T08:16:50.300Z,100167.09
2022-11-16T08:19:18.611Z,100163.53
2022-11-16T08:21:46.263Z,100170.69
2022-11-16T08:24:15.816Z,100166.28
2022-11-16T08:26:44.863Z,100175.06
2022-11-16T08:29:15.778Z,100171.50
2022-11-16T08:31:49.808Z,100176.81
2022-11-16T08:34:22.470Z,100174.06
2022-11-16T08:36:53.688Z,100177.66
2022-11-16T08:39:27.159Z,100179.25
2022-11-16T08:41:54.886Z,100171.28
2022-11-16T08:44:22.547Z,100180.00
2022-11-16T08:46:53.774Z,100177.31
2022-11-16T08:49:32.670Z,100182.47
2022-11-16T08:52:00.790Z,100183.16
2022-11-16T08:54:30.514Z,100181.13
2022-11-16T08:56:58.437Z,100185.44
2022-11-16T08:59:27.175Z,100188.66
2022-11-16T09:01:58.517Z,100184.94
2022-11-16T09:04:26.217Z,100182.19
2022-11-16T09:06:54.900Z,100186.25
2022-11-16T09:09:22.748Z,100188.63
2022-11-16T09:11:52.435Z,100191.06
2022-11-16T09:14:20.091Z,100191.78
2022-11-16T09:16:47.945Z,100192.34
2022-11-16T09:19:15.621Z,100188.50
2022-11-16T09:22:05.808Z,100177.63
2022-11-16T09:24:34.240Z,100184.31
2022-11-16T09:27:02.185Z,100188.47
2022-11-16T09:29:30.916Z,100195.13
2022-11-16T09:31:59.007Z,100205.63
2022-11-16T09:34:26.708Z,100205.91
2022-11-16T09:36:54.513Z,100193.69
2022-11-16T09:39:31.496Z,100199.19
2022-11-16T09:42:52.648Z,100199.13
2022-11-16T09:46:05.425Z,100198.16
2022-11-16T09:48:38.399Z,100208.03
2022-11-16T09:51:11.884Z,100194.44
2022-11-16T09:54:08.157Z,100205.91
2022-11-16T09:56:41.124Z,100201.66
2022-11-16T09:59:12.198Z,100208.44
2022-11-16T10:02:27.150Z,100203.19
2022-11-16T10:05:15.704Z,100205.81
2022-11-16T10:08:21.574Z,100207.59
2022-11-16T10:11:17.266Z,100206.03
2022-11-16T10:14:28.737Z,100197.03
2022-11-16T10:17:43.083Z,100200.97
2022-11-16T10:20:44.843Z,100192.13
2022-11-16T10:23:18.006Z,100191.97
2022-11-16T10:25:58.940Z,100190.16
2022-11-16T10:29:10.096Z,100195.16
2022-11-16T10:31:54.621Z,100190.81
2022-11-16T10:34:36.087Z,100196.72
2022-11-16T10:37:08.337Z,100193.59
2022-11-16T10:39:40.790Z,100191.94
2022-11-16T10:42:39.776Z,100191.53
2022-11-16T10:45:10.624Z,100185.22
2022-11-16T10:48:09.065Z,100186.84
2022-11-16T10:50:50.350Z,100200.09
2022-11-16T10:53:36.578Z,100193.97
2022-11-16T10:56:31.683Z,100197.16
2022-11-16T10:59:01.883Z,100190.34
2022-11-16T11:01:53.286Z,100207.66
2022-11-16T11:04:29.307Z,100203.78
2022-11-16T11:07:03.077Z,100192.84
2022-11-16T11:09:33.109Z,100200.50
2022-11-16T11:12:32.003Z,100201.22
2022-11-16T11:15:11.672Z,100194.66
2022-11-16T11:17:41.498Z,100199.25
2022-11-16T11:20:23.909Z,100191.13
2022-11-16T11:23:00.355Z,100198.19
2022-11-16T11:25:36.137Z,100193.88
2022-11-16T11:28:27.423Z,100190.97
2022-11-16T11:31:33.662Z,100191.16
2022-11-16T11:34:10.262Z,100180.00
2022-11-16T11:36:44.060Z,100182.97
2022-11-16T11:39:12.076Z,100175.28
2022-11-16T11:41:45.710Z,100181.66
2022-11-16T11:44:13.255Z,100167.94
2022-11-16T11:50:14.184Z,100160.16
2022-11-16T11:53:07.153Z,100157.66
2022-11-16T11:55:35.449Z,100153.72
2022-11-16T11:58:06.375Z,100154.06
2022-11-16T12:00:55.286Z,100155.94
2022-11-16T12:04:08.141Z,100165.13
2022-11-16T12:06:57.070Z,100165.94
2022-11-16T12:09:30.064Z,100165.81
2022-11-16T12:12:21.647Z,100158.75
2022-11-16T12:15:06.355Z,100168.97
2022-11-16T12:18:09.382Z,100166.25
2022-11-16T12:21:15.184Z,100166.44
2022-11-16T12:23:54.393Z,100172.97
2022-11-16T12:26:52.148Z,100164.97
2022-11-16T12:30:00.230Z,100161.38
2022-11-16T12:33:02.753Z,100167.56
2022-11-16T12:35:54.313Z,100164.66
2022-11-16T12:38:42.354Z,100166.69
2022-11-16T12:41:47.262Z,100161.78
2022-11-16T12:44:32.635Z,100147.78
2022-11-16T12:47:26.248Z,100146.44
2022-11-16T12:50:54.038Z,100140.66
2022-11-16T12:53:54.344Z,100131.78
2022-11-16T12:56:31.599Z,100130.06
2022-11-16T12:59:50.904Z,100130.28
2022-11-16T13:02:41.244Z,100122.22
2022-11-16T13:05:22.323Z,100123.31
2022-11-16T13:07:59.169Z,100118.91
2022-11-16T13:10:34.363Z,100127.09
2022-11-16T13:16:02.490Z,100119.88
2022-11-16T13:18:32.678Z,100114.53
2022-11-16T13:21:31.027Z,100115.47
2022-11-16T13:24:30.309Z,100116.41
2022-11-16T13:27:28.973Z,100112.03
2022-11-16T13:30:22.484Z,100105.88
2022-11-16T13:33:30.355Z,100104.28
2022-11-16T13:35:58.043Z,100111.59
2022-11-16T13:38:52.620Z,100115.41
2022-11-16T13:41:37.195Z,100118.31
2022-11-16T13:44:20.319Z,100114.09
2022-11-16T13:46:56.828Z,100115.41
2022-11-16T13:49:31.911Z,100120.00
2022-11-16T13:52:22.510Z,100112.16
2022-11-16T13:55:13.064Z,100110.59
2022-11-16T13:57:51.687Z,100092.97
2022-11-16T14:00:30.870Z,100091.31
2022-11-16T14:03:16.594Z,100088.72
2022-11-16T14:05:49.514Z,100086.06
2022-11-16T14:08:19.885Z,100087.03
2022-11-16T14:10:50.379Z,100089.69
2022-11-16T14:13:41.021Z,100091.31
2022-11-16T14:16:17.847Z,100087.78
2022-11-16T14:19:00.350Z,100081.31
2022-11-16T14:22:12.449Z,100075.03
2022-11-16T14:24:52.764Z,100072.44
2022-11-16T14:28:04.408Z,100068.13
2022-11-16T14:31:02.134Z,100065.06
2022-11-16T14:33:35.128Z,100068.72
2022-11-16T14:36:09.203Z,100072.56
2022-11-16T14:38:42.388Z,100070.06
2022-11-16T14:41:22.625Z,100072.84
2022-11-16T14:43:54.787Z,100069.63
2022-11-16T14:46:42.636Z,100057.13
2022-11-16T14:49:16.373Z,100058.91
2022-11-16T14:51:52.796Z,100050.94
2022-11-16T14:54:48.585Z,100053.66
2022-11-16T14:57:22.753Z,100050.28
2022-11-16T15:00:12.438Z,100052.16
2022-11-16T15:02:41.388Z,100048.06
2022-11-16T15:05:17.647Z,100044.63
2022-11-16T15:07:49.717Z,100036.81
2022-11-16T15:10:22.324Z,100038.72
2022-11-16T15:12:52.821Z,100037.06
2022-11-16T15:15:27.334Z,100038.19
2022-11-16T15:18:00.705Z,100028.75
2022-11-16T15:20:34.441Z,100025.28
2022-11-16T15:23:05.618Z,100026.38
2022-11-16T15:25:54.823Z,100019.47
2022-11-16T15:28:28.920Z,100018.91
2022-11-16T15:31:04.262Z,100011.00
2022-11-16T15:33:38.050Z,100008.59
2022-11-16T15:36:37.869Z,100006.13
2022-11-16T15:39:28.621Z,100008.03
2022-11-16T15:42:00.556Z,100009.97
2022-11-16T15:44:32.804Z,100004.97
2022-11-16T15:47:01.068Z,99993.66
2022-11-16T15:49:40.739Z,99993.78
2022-11-16T15:52:08.536Z,99986.75
2022-11-16T15:54:55.436Z,99979.09
2022-11-16T15:57:28.929Z,99966.84
2022-11-16T15:59:57.484Z,99965.31
2022-11-16T16:02:31.175Z,99968.03
2022-11-16T16:04:58.828Z,99970.00
2022-11-16T16:07:41.922Z,99963.88
2022-11-16T16:10:18.648Z,99950.78
2022-11-16T16:13:00.663Z,99936.81
2022-11-16T16:15:40.143Z,99954.59
2022-11-16T16:18:39.787Z,99969.94
2022-11-16T16:21:08.219Z,99963.91
2022-11-16T16:23:49.099Z,99967.50
2022-11-16T16:26:18.240Z,99964.91
2022-11-16T16:28:46.492Z,99962.25
2022-11-16T16:31:14.587Z,99959.88
2022-11-16T16:33:42.316Z,99952.84
2022-11-16T16:36:13.308Z,99950.19
2022-11-16T16:38:41.068Z,99941.47
2022-11-16T16:41:23.721Z,99941.56
2022-11-16T16:43:52.098Z,99943.28
2022-11-16T16:46:20.020Z,99947.00
2022-11-16T16:48:47.742Z,99941.84
2022-11-16T16:51:15.373Z,99930.19
2022-11-16T16:53:43.025Z,99936.53
2022-11-16T16:56:17.611Z,99941.84
2022-11-16T16:58:45.501Z,99935.72
2022-11-16T17:01:13.311Z,99935.00
2022-11-16T17:03:41.031Z,99928.69
2022-11-16T17:06:09.063Z,99924.31
2022-11-16T17:08:38.067Z,99913.88
2022-11-16T17:11:05.736Z,99912.25
2022-11-16T17:13:33.732Z,99917.47
2022-11-16T17:16:05.653Z,99920.22
2022-11-16T17:18:33.388Z,99917.69
2022-11-16T17:21:09.038Z,99905.25
2022-11-16T17:23:37.632Z,99912.44
2022-11-16T17:26:07.623Z,99912.50
2022-11-16T17:28:35.747Z,99918.72
2022-11-16T17:31:07.616Z,99917.00
2022-11-16T17:33:41.023Z,99910.00
2022-11-16T17:36:12.559Z,99911.91
2022-11-16T17:38:40.514Z,99912.91
2022-11-16T17:41:14.760Z,99915.69
2022-11-16T17:43:44.748Z,99919.25
2022-11-16T17:46:18.211Z,99911.41
2022-11-16T17:48:47.742Z,99908.88
2022-11-16T17:51:21.809Z,99896.59
2022-11-16T17:53:49.764Z,99893.13
2022-11-16T17:56:25.924Z,99889.75
2022-11-16T17:58:55.007Z,99888.97
2022-11-16T18:01:23.784Z,99889.88
2022-11-16T18:03:51.745Z,99885.50
2022-11-16T18:06:22.454Z,99883.72
2022-11-16T18:09:03.813Z,99889.09
2022-11-16T18:11:31.462Z,99885.56
2022-11-16T18:14:01.008Z,99884.66
2022-11-16T18:16:31.749Z,99886.38
2022-11-16T18:19:05.520Z,99880.13
2022-11-16T18:21:40.100Z,99879.91
2022-11-16T18:24:08.485Z,99884.19
2022-11-16T18:26:37.210Z,99878.06
2022-11-16T18:29:05.179Z,99881.41
2022-11-16T18:31:33.916Z,99881.34
2022-11-16T18:34:02.706Z,99876.78
2022-11-16T18:36:30.390Z,99879.31
2022-11-16T18:38:58.037Z,99881.97
2022-11-16T18:41:28.090Z,99881.84
2022-11-16T18:43:58.881Z,99875.56
2022-11-16T18:46:29.899Z,99875.50
2022-11-16T18:48:58.671Z,99870.25
2022-11-16T18:51:27.835Z,99857.03
2022-11-16T18:53:56.088Z,99856.16
2022-11-16T18:56:24.796Z,99856.09
2022-11-16T18:58:53.305Z,99850.88
2022-11-16T19:01:24.773Z,99852.66
2022-11-16T19:03:55.043Z,99846.41
2022-11-16T19:06:23.793Z,99847.28
2022-11-16T19:08:59.654Z,99833.16
2022-11-16T19:11:28.748Z,99836.66
2022-11-16T19:14:09.188Z,99830.44
2022-11-16T19:16:37.771Z,99836.50
2022-11-16T19:19:07.314Z,99822.31
2022-11-16T19:21:34.972Z,99811.63
2022-11-16T19:24:02.712Z,99794.75
2022-11-16T19:26:30.405Z,99790.31
2022-11-16T19:28:59.026Z,99782.22
2022-11-16T19:31:30.069Z,99781.22
2022-11-16T19:34:06.854Z,99777.53
2022-11-16T19:36:36.602Z,99774.03
2022-11-16T19:39:05.378Z,99765.06
2022-11-16T19:41:33.038Z,99762.25
2022-11-16T19:44:01.636Z,99758.63
2022-11-16T19:46:32.637Z,99763.94
2022-11-16T19:49:00.950Z,99755.09
2022-11-16T19:51:33.789Z,99745.34
2022-11-16T19:54:02.821Z,99742.69
2022-11-16T19:56:30.987Z,99738.22
2022-11-16T19:58:58.707Z,99736.28
2022-11-16T20:01:28.970Z,99723.78
2022-11-16T20:04:00.262Z,99722.94
2022-11-16T20:06:31.286Z,99713.09
2022-11-16T20:09:03.860Z,99710.38
2022-11-16T20:11:46.124Z,99703.34
2022-11-16T20:14:14.859Z,99702.41
2022-11-16T20:16:46.382Z,99692.78
2022-11-16T20:19:14.810Z,99690.91
2022-11-16T20:21:43.952Z,99683.94
2022-11-16T20:24:15.035Z,99675.19
2022-11-16T20:26:46.351Z,99675.06
2022-11-16T20:29:16.236Z,99681.03
2022-11-16T20:31:45.356Z,99675.91
2022-11-16T20:34:16.383Z,99679.38
2022-11-16T20:36:47.231Z,99668.66
2022-11-16T20:39:18.008Z,99663.34
2022-11-16T20:41:46.157Z,99665.84
2022-11-16T20:44:18.251Z,99664.91
2022-11-16T20:46:46.274Z,99649.75
2022-11-16T20:49:14.337Z,99647.09
2022-11-16T20:51:42.160Z,99647.91
2022-11-16T20:54:09.797Z,99640.72
2022-11-16T20:56:37.605Z,99631.03
2022-11-16T20:59:05.393Z,99626.66
2022-11-16T21:01:33.166Z,99629.22
2022-11-16T21:04:04.482Z,99623.06
2022-11-16T21:06:32.800Z,99628.38
2022-11-16T21:09:00.854Z,99630.09
2022-11-16T21:11:30.802Z,99612.34
2022-11-16T21:14:16.665Z,99598.03
2022-11-16T21:16:44.855Z,99588.28
2022-11-16T21:19:12.870Z,99576.63
2022-11-16T21:21:40.826Z,99573.19
2022-11-16T21:24:09.525Z,99574.06
2022-11-16T21:26:38.093Z,99572.19
2022-11-16T21:29:06.522Z,99572.13
2022-11-16T21:31:36.653Z,99564.06
2022-11-16T21:34:05.703Z,99554.31
2022-11-16T21:36:33.848Z,99545.47
2022-11-16T21:39:01.599Z,99542.97
2022-11-16T21:41:29.419Z,99542.75
2022-11-16T21:43:57.198Z,99528.69
2022-11-16T21:46:26.637Z,99512.59
2022-11-16T21:48:56.244Z,99524.06
2022-11-16T21:51:27.021Z,99513.59
2022-11-16T21:53:55.901Z,99500.38
2022-11-16T21:56:26.308Z,99502.97
2022-11-16T21:58:54.713Z,99493.22
2022-11-16T22:01:23.661Z,99489.63
2022-11-16T22:04:10.388Z,99486.03
2022-11-16T22:06:56.409Z,99478.06
2022-11-16T22:09:24.145Z,99477.09
2022-11-16T22:11:51.804Z,99470.94
2022-11-16T22:14:19.478Z,99464.78
2022-11-16T22:16:47.120Z,99460.38
2022-11-16T22:19:14.766Z,99454.22
2022-11-16T22:21:42.407Z,99443.41
2022-11-16T22:24:10.041Z,99433.47
2022-11-16T22:26:38.069Z,99432.88
2022-11-16T22:29:05.764Z,99427.47
2022-11-16T22:31:34.216Z,99415.81
2022-11-16T22:34:01.859Z,99409.72
2022-11-16T22:36:29.503Z,99397.22
2022-11-16T22:38:57.174Z,99385.59
2022-11-16T22:41:24.857Z,99375.97
2022-11-16T22:43:52.543Z,99363.47
2022-11-16T22:46:20.220Z,99362.53
2022-11-16T22:48:47.970Z,99359.94
2022-11-16T22:51:26.352Z,99349.25
2022-11-16T22:54:02.237Z,99350.97
2022-11-16T22:56:32.070Z,99341.34
2022-11-16T22:59:02.413Z,99335.19
2022-11-16T23:01:30.096Z,99322.91
2022-11-16T23:03:58.407Z,99319.53
2022-11-16T23:06:26.165Z,99316.00
2022-11-16T23:08:54.001Z,99310.84
2022-11-16T23:11:43.055Z,99292.41
2022-11-16T23:14:35.897Z,99284.28
2022-11-16T23:17:04.270Z,99280.84
2022-11-16T23:19:52.136Z,99275.53
2022-11-16T23:22:40.541Z,99278.38
2022-11-16T23:25:29.751Z,99268.50
2022-11-16T23:28:13.082Z,99265.28
2022-11-16T23:30:40.882Z,99255.69
2022-11-16T23:33:09.447Z,99253.19
2022-11-16T23:35:37.278Z,99249.84
2022-11-16T23:38:08.599Z,99237.41
2022-11-16T23:40:39.319Z,99243.50
2022-11-16T23:43:28.847Z,99224.91
2022-11-16T23:45:56.518Z,99206.41
2022-11-16T23:48:24.176Z,99205.66
2022-11-16T23:50:51.822Z,99187.16
2022-11-16T23:53:19.468Z,99170.38
2022-11-16T23:55:47.533Z,99157.88
2022-11-16T23:58:15.543Z,99148.19
